Time;durP1;ratioP1;P1;durP2;ratioP2;P2;SDS_P1;SDS_P2;PMS_P1;PMS_P2;Temp;Humidity;BMP_temperature;BMP_pressure;BME280_temperature;BME280_humidity;BME280_pressure;Samples;Min_cycle;Max_cycle;Signal;HPM_P1;HPM_P2
2021/09/07 00:01:22;;;;;;;6.32;2.28;;;40.20;43.90;;;;;;5119740;27;20076;-57
2021/09/07 00:03:49;;;;;;;4.20;1.70;;;40.20;44.30;;;;;;5116707;27;20057;-56
2021/09/07 00:06:17;;;;;;;6.90;2.10;;;40.20;44.00;;;;;;5112941;27;20630;-55
2021/09/07 00:08:47;;;;;;;8.43;1.77;;;40.20;44.10;;;;;;5119966;27;20429;-58
2021/09/07 00:11:16;;;;;;;10.15;1.90;;;40.10;43.20;;;;;;5117923;27;20504;-56
2021/09/07 00:13:44;;;;;;;13.60;3.03;;;40.00;44.00;;;;;;5101642;27;20079;-57
2021/09/07 00:16:11;;;;;;;5.88;2.10;;;39.80;44.70;;;;;;5119215;27;20110;-57
2021/09/07 00:18:37;;;;;;;13.35;2.17;;;39.80;45.00;;;;;;5120106;27;20067;-59
2021/09/07 00:21:04;;;;;;;14.63;2.60;;;39.80;45.30;;;;;;5114404;27;20092;-59
2021/09/07 00:23:30;;;;;;;10.55;2.65;;;39.80;44.90;;;;;;5114334;27;20094;-59
2021/09/07 00:25:56;;;;;;;7.57;3.03;;;39.70;45.10;;;;;;5117880;27;20146;-59
2021/09/07 00:28:23;;;;;;;9.68;2.97;;;39.70;45.40;;;;;;5116027;27;20075;-56
2021/09/07 00:30:50;;;;;;;13.93;2.70;;;39.60;45.60;;;;;;5118715;27;20138;-57
2021/09/07 00:33:16;;;;;;;4.68;2.50;;;39.40;45.60;;;;;;5113766;27;20120;-56
2021/09/07 00:35:43;;;;;;;7.05;2.45;;;39.30;45.70;;;;;;5118634;27;20511;-56
2021/09/07 00:38:10;;;;;;;10.95;2.97;;;39.30;46.20;;;;;;5115456;27;20559;-57
2021/09/07 00:40:37;;;;;;;9.07;2.28;;;39.20;45.80;;;;;;5112996;27;20121;-57
2021/09/07 00:43:03;;;;;;;7.63;2.42;;;39.20;45.80;;;;;;5121616;27;20088;-57
2021/09/07 00:45:30;;;;;;;10.93;2.53;;;39.20;45.90;;;;;;5114434;27;20501;-54
2021/09/07 00:47:56;;;;;;;12.18;2.28;;;39.20;45.30;;;;;;5112035;27;20072;-56
2021/09/07 00:50:23;;;;;;;7.78;2.40;;;39.00;46.10;;;;;;5117717;27;20077;-57
2021/09/07 00:52:50;;;;;;;13.00;2.83;;;38.80;46.10;;;;;;5114780;27;20084;-56
2021/09/07 00:55:17;;;;;;;11.88;2.65;;;38.80;46.70;;;;;;5119753;27;20096;-58
2021/09/07 00:57:49;;;;;;;15.05;2.70;;;38.70;47.00;;;;;;5116277;27;20095;-53
2021/09/07 01:00:16;;;;;;;9.93;2.42;;;38.70;47.20;;;;;;5115496;27;20474;-55
2021/09/07 01:02:42;;;;;;;10.80;2.00;;;38.60;47.10;;;;;;5114400;27;20150;-59
2021/09/07 01:05:09;;;;;;;10.23;2.28;;;38.50;47.10;;;;;;5115999;27;20072;-54
2021/09/07 01:07:36;;;;;;;9.63;2.00;;;38.30;47.20;;;;;;5117158;27;20072;-56
2021/09/07 01:10:04;;;;;;;7.00;1.98;;;38.30;47.40;;;;;;5114725;27;20088;-58
2021/09/07 01:12:32;;;;;;;9.77;2.28;;;38.20;47.40;;;;;;5113001;27;20076;-57
2021/09/07 01:14:58;;;;;;;9.73;2.08;;;38.10;47.20;;;;;;5115444;27;20076;-53
2021/09/07 01:17:25;;;;;;;12.63;1.90;;;37.90;47.50;;;;;;5107657;27;20100;-62
2021/09/07 01:19:52;;;;;;;8.90;1.65;;;37.90;47.90;;;;;;5111551;27;20090;-54
2021/09/07 01:22:20;;;;;;;7.15;1.65;;;37.80;47.90;;;;;;5111886;27;20549;-56
2021/09/07 01:24:48;;;;;;;7.50;1.85;;;37.80;49.70;;;;;;5116183;27;20429;-58
2021/09/07 01:27:15;;;;;;;6.22;1.70;;;37.60;47.60;;;;;;5112381;27;20533;-57
2021/09/07 01:29:43;;;;;;;7.65;2.03;;;37.60;48.00;;;;;;5114059;27;20576;-56
2021/09/07 01:32:11;;;;;;;7.85;1.88;;;37.50;48.30;;;;;;5114861;27;20090;-57
2021/09/07 01:34:39;;;;;;;12.00;2.05;;;37.50;48.50;;;;;;5115465;27;20127;-57
2021/09/07 01:37:07;;;;;;;8.55;1.83;;;37.40;48.50;;;;;;5119015;27;20148;-54
2021/09/07 01:39:36;;;;;;;9.63;1.65;;;37.30;48.60;;;;;;5114193;27;20084;-57
2021/09/07 01:42:02;;;;;;;4.55;1.60;;;37.20;48.80;;;;;;5115782;27;20083;-56
2021/09/07 01:44:31;;;;;;;10.32;1.63;;;37.10;49.30;;;;;;5115134;27;20096;-52
2021/09/07 01:46:58;;;;;;;7.07;1.80;;;37.00;49.40;;;;;;5118517;27;20421;-56
2021/09/07 01:49:25;;;;;;;6.13;1.90;;;36.90;49.70;;;;;;5111389;27;20162;-56
2021/09/07 01:51:52;;;;;;;10.38;1.98;;;36.90;49.40;;;;;;5112783;27;20084;-56
2021/09/07 01:54:21;;;;;;;11.25;2.17;;;36.80;49.40;;;;;;5116035;27;20064;-57
2021/09/07 01:56:47;;;;;;;6.32;1.70;;;36.80;49.90;;;;;;5110232;27;20088;-55
2021/09/07 01:59:14;;;;;;;11.60;2.03;;;36.80;50.40;;;;;;5114480;27;20075;-56
2021/09/07 02:01:40;;;;;;;13.10;1.92;;;36.70;50.40;;;;;;5095452;28;20071;-55
2021/09/07 02:04:07;;;;;;;8.45;1.67;;;36.60;50.60;;;;;;5113809;27;20149;-53
2021/09/07 02:06:33;;;;;;;15.63;2.03;;;36.60;50.80;;;;;;5113515;27;20159;-57
2021/09/07 02:09:00;;;;;;;10.80;1.90;;;36.50;51.10;;;;;;5108560;28;20083;-57
2021/09/07 02:11:26;;;;;;;5.57;1.80;;;36.40;51.20;;;;;;5117108;28;20080;-56
2021/09/07 02:13:53;;;;;;;12.15;2.38;;;36.30;51.20;;;;;;5112707;28;20072;-55
2021/09/07 02:16:19;;;;;;;11.50;2.75;;;36.30;51.30;;;;;;5119316;27;20092;-58
2021/09/07 02:18:46;;;;;;;16.00;2.40;;;36.30;51.40;;;;;;5117722;27;20076;-57
2021/09/07 02:21:12;;;;;;;12.80;2.55;;;36.20;51.40;;;;;;5120065;27;20091;-57
2021/09/07 02:23:39;;;;;;;10.85;2.20;;;36.10;51.50;;;;;;5121384;27;20134;-56
2021/09/07 02:26:05;;;;;;;9.18;2.05;;;36.10;51.40;;;;;;5123126;27;20204;-57
2021/09/07 02:28:32;;;;;;;12.23;2.78;;;36.00;51.50;;;;;;5118489;27;20099;-53
2021/09/07 02:30:58;;;;;;;7.90;1.98;;;36.00;51.90;;;;;;5121290;27;20122;-54
2021/09/07 02:33:25;;;;;;;9.93;2.20;;;36.00;52.00;;;;;;5115110;27;20120;-56
2021/09/07 02:35:51;;;;;;;9.45;2.10;;;35.90;52.20;;;;;;5120190;27;20161;-56
2021/09/07 02:38:18;;;;;;;13.25;2.50;;;35.80;52.50;;;;;;5118070;27;21734;-49
2021/09/07 02:40:45;;;;;;;9.70;2.38;;;35.80;52.90;;;;;;5120623;27;20162;-51
2021/09/07 02:43:13;;;;;;;10.70;2.97;;;35.70;53.10;;;;;;5122121;27;20084;-48
2021/09/07 02:45:39;;;;;;;10.45;3.50;;;35.70;53.40;;;;;;5123765;27;20087;-50
2021/09/07 02:48:06;;;;;;;10.20;2.83;;;35.60;53.60;;;;;;5116134;27;20495;-50
2021/09/07 02:50:32;;;;;;;12.60;2.90;;;35.60;53.70;;;;;;5118678;27;20083;-48
2021/09/07 02:52:59;;;;;;;19.38;2.83;;;35.60;53.80;;;;;;5116357;27;20091;-51
2021/09/07 02:55:25;;;;;;;18.67;3.90;;;35.50;53.90;;;;;;5116151;27;20074;-51
2021/09/07 02:57:52;;;;;;;15.45;4.80;;;35.50;54.30;;;;;;5121193;27;20125;-47
2021/09/07 03:00:18;;;;;;;23.27;7.55;;;35.40;54.70;;;;;;5122070;27;20214;-49
2021/09/07 03:02:45;;;;;;;26.77;9.80;;;35.30;55.20;;;;;;5121300;27;20072;-49
2021/09/07 03:05:12;;;;;;;34.28;11.50;;;35.20;55.20;;;;;;5118276;27;20110;-51
2021/09/07 03:07:39;;;;;;;22.30;7.53;;;35.20;55.60;;;;;;5116719;27;20080;-50
2021/09/07 03:10:06;;;;;;;27.40;7.75;;;35.10;55.90;;;;;;5123771;27;20520;-48
2021/09/07 03:12:32;;;;;;;26.08;5.60;;;35.10;56.40;;;;;;5117605;27;20104;-48
2021/09/07 03:14:59;;;;;;;21.48;6.28;;;35.00;56.60;;;;;;5118345;27;20075;-50
2021/09/07 03:17:25;;;;;;;30.23;7.22;;;35.00;56.90;;;;;;5122485;27;20098;-48
2021/09/07 03:19:52;;;;;;;27.77;8.73;;;34.90;57.50;;;;;;5120981;27;20064;-49
2021/09/07 03:22:18;;;;;;;22.30;9.02;;;34.90;56.90;;;;;;5120630;27;20079;-50
2021/09/07 03:24:45;;;;;;;33.20;9.93;;;34.90;56.90;;;;;;5100180;27;20080;-52
2021/09/07 03:27:11;;;;;;;25.10;7.72;;;34.80;56.70;;;;;;5118912;27;20084;-49
2021/09/07 03:29:38;;;;;;;21.33;8.15;;;34.80;56.00;;;;;;5115905;27;20481;-49
2021/09/07 03:32:05;;;;;;;25.23;8.75;;;34.70;56.00;;;;;;5120521;27;20132;-48
2021/09/07 03:34:31;;;;;;;26.88;9.02;;;34.70;55.90;;;;;;5116311;27;20112;-49
2021/09/07 03:36:58;;;;;;;24.30;8.48;;;34.60;55.70;;;;;;5117562;27;20095;-50
2021/09/07 03:39:24;;;;;;;22.70;8.32;;;34.60;55.70;;;;;;5120496;27;20083;-50
2021/09/07 03:41:51;;;;;;;30.63;8.63;;;34.60;55.60;;;;;;5119031;27;20536;-49
2021/09/07 03:44:17;;;;;;;20.50;7.63;;;34.60;55.80;;;;;;5096984;27;20273;-51
2021/09/07 03:46:44;;;;;;;23.08;7.38;;;34.50;55.90;;;;;;5116719;27;20083;-50
2021/09/07 03:49:10;;;;;;;19.38;8.35;;;34.50;56.00;;;;;;5116145;27;20080;-50
2021/09/07 03:51:37;;;;;;;26.33;8.68;;;34.50;56.10;;;;;;5115920;27;20155;-51
2021/09/07 03:54:03;;;;;;;33.85;9.55;;;34.40;55.60;;;;;;5103347;27;20125;-47
2021/09/07 03:56:30;;;;;;;32.67;10.30;;;34.30;55.90;;;;;;5117750;27;20084;-49
2021/09/07 03:58:57;;;;;;;24.42;9.40;;;34.30;55.80;;;;;;5116020;27;20067;-50
2021/09/07 04:01:23;;;;;;;29.52;10.13;;;34.30;55.30;;;;;;5120170;27;20406;-51
2021/09/07 04:03:50;;;;;;;31.00;9.45;;;34.20;55.00;;;;;;5116464;27;20076;-53
2021/09/07 04:06:16;;;;;;;27.63;9.10;;;34.20;55.00;;;;;;5122373;27;20155;-50
2021/09/07 04:08:43;;;;;;;21.77;7.35;;;34.20;55.20;;;;;;5121891;27;20069;-49
2021/09/07 04:11:09;;;;;;;19.52;5.53;;;34.20;55.10;;;;;;5117582;27;20069;-49
2021/09/07 04:13:36;;;;;;;18.48;6.30;;;34.20;55.70;;;;;;5119209;27;20078;-49
2021/09/07 04:16:02;;;;;;;12.60;4.65;;;34.20;55.10;;;;;;5118110;27;20534;-48
2021/09/07 04:18:29;;;;;;;12.23;4.95;;;34.20;54.90;;;;;;5118891;27;20080;-51
2021/09/07 04:20:55;;;;;;;21.30;5.43;;;34.10;55.00;;;;;;5118899;27;20065;-46
2021/09/07 04:23:22;;;;;;;17.65;5.22;;;34.10;55.10;;;;;;5117058;27;20150;-48
2021/09/07 04:25:48;;;;;;;14.20;4.65;;;34.10;54.90;;;;;;5117161;27;20073;-49
2021/09/07 04:28:16;;;;;;;12.65;4.63;;;34.10;54.80;;;;;;5118277;27;20162;-52
2021/09/07 04:30:42;;;;;;;12.35;5.25;;;34.00;54.60;;;;;;5117928;27;20444;-49
2021/09/07 04:33:09;;;;;;;19.95;6.18;;;34.00;54.60;;;;;;5117374;27;20187;-49
2021/09/07 04:35:35;;;;;;;18.55;6.18;;;34.00;54.70;;;;;;5117349;27;20125;-47
2021/09/07 04:38:02;;;;;;;14.23;5.43;;;34.00;55.00;;;;;;5117064;27;20110;-48
2021/09/07 04:40:28;;;;;;;15.02;5.07;;;33.90;54.90;;;;;;5117296;27;20110;-48
2021/09/07 04:42:55;;;;;;;17.35;4.70;;;33.90;54.80;;;;;;5118391;27;20121;-53
2021/09/07 04:45:21;;;;;;;19.85;5.25;;;33.90;54.80;;;;;;5115994;27;20104;-50
2021/09/07 04:47:48;;;;;;;16.95;4.70;;;33.90;54.80;;;;;;5114339;27;20076;-50
2021/09/07 04:50:14;;;;;;;12.85;4.72;;;33.90;54.50;;;;;;5118107;27;20658;-51
2021/09/07 04:52:41;;;;;;;16.25;4.60;;;33.80;54.40;;;;;;5118343;27;20428;-50
2021/09/07 04:55:08;;;;;;;12.65;4.70;;;33.80;54.30;;;;;;5116729;27;20072;-49
2021/09/07 04:57:34;;;;;;;10.65;4.75;;;33.80;54.20;;;;;;5115756;27;20096;-48
2021/09/07 05:00:01;;;;;;;10.07;4.60;;;33.80;54.10;;;;;;5118439;27;20072;-48
2021/09/07 05:02:27;;;;;;;17.63;5.13;;;33.80;53.90;;;;;;5096131;27;20486;-51
2021/09/07 05:04:54;;;;;;;19.50;4.40;;;33.80;53.80;;;;;;5120194;27;20444;-50
2021/09/07 05:07:20;;;;;;;14.95;3.95;;;33.80;53.70;;;;;;5120458;27;20393;-50
2021/09/07 05:09:47;;;;;;;8.77;3.50;;;33.80;53.60;;;;;;5118541;27;20632;-51
2021/09/07 05:12:13;;;;;;;16.23;5.13;;;33.80;53.70;;;;;;5118717;27;20088;-51
2021/09/07 05:14:41;;;;;;;24.20;8.77;;;33.80;53.70;;;;;;5118582;27;20064;-49
2021/09/07 05:17:08;;;;;;;27.52;13.60;;;33.70;53.60;;;;;;5113212;27;20103;-50
2021/09/07 05:19:34;;;;;;;36.42;16.50;;;33.70;53.30;;;;;;5117317;27;20123;-52
2021/09/07 05:22:00;;;;;;;46.08;19.58;;;33.70;53.20;;;;;;5112340;27;20217;-50
2021/09/07 05:24:27;;;;;;;50.13;24.45;;;33.70;53.10;;;;;;5116689;27;20068;-50
2021/09/07 05:26:53;;;;;;;46.72;23.40;;;33.60;52.90;;;;;;5113095;27;20432;-47
2021/09/07 05:29:20;;;;;;;57.83;25.17;;;33.70;53.10;;;;;;5114623;27;20546;-52
2021/09/07 05:31:46;;;;;;;49.13;22.05;;;33.70;52.80;;;;;;5115888;27;20064;-48
2021/09/07 05:34:13;;;;;;;38.70;17.52;;;33.70;52.70;;;;;;5115447;27;20508;-51
2021/09/07 05:36:39;;;;;;;44.92;16.75;;;33.60;53.00;;;;;;5117319;27;20253;-49
2021/09/07 05:39:06;;;;;;;47.45;16.60;;;33.60;53.10;;;;;;5118652;27;20201;-51
2021/09/07 05:41:32;;;;;;;40.47;15.50;;;33.60;53.10;;;;;;5117985;27;20460;-52
2021/09/07 05:43:59;;;;;;;41.83;15.30;;;33.60;53.50;;;;;;5114930;27;20498;-52
2021/09/07 05:46:26;;;;;;;35.17;12.15;;;33.50;53.70;;;;;;5116372;27;20117;-50
2021/09/07 05:48:52;;;;;;;34.58;11.30;;;33.50;54.10;;;;;;5118692;27;20072;-51
2021/09/07 05:51:19;;;;;;;32.67;11.32;;;33.40;54.50;;;;;;5094514;27;20076;-54
2021/09/07 05:53:45;;;;;;;38.20;11.00;;;33.40;54.50;;;;;;5115032;27;20072;-48
2021/09/07 05:56:12;;;;;;;34.53;10.70;;;33.40;54.80;;;;;;5117299;27;20204;-53
2021/09/07 05:58:39;;;;;;;32.28;9.32;;;33.30;55.10;;;;;;5117188;27;20068;-55
2021/09/07 06:01:06;;;;;;;30.90;8.18;;;33.30;55.90;;;;;;5099275;28;20424;-52
2021/09/07 06:03:32;;;;;;;25.13;7.88;;;33.20;55.60;;;;;;5111628;27;20155;-48
2021/09/07 06:05:59;;;;;;;33.25;7.10;;;33.20;55.90;;;;;;5117967;27;20130;-53
2021/09/07 06:08:27;;;;;;;30.90;6.78;;;33.20;56.20;;;;;;5116846;27;20077;-51
2021/09/07 06:10:54;;;;;;;29.65;6.68;;;33.20;56.50;;;;;;5111163;28;21365;-50
2021/09/07 06:13:22;;;;;;;29.15;7.05;;;33.10;56.80;;;;;;5117824;28;20076;-52
2021/09/07 06:15:49;;;;;;;23.55;6.03;;;33.10;57.20;;;;;;5116478;28;20168;-51
2021/09/07 06:18:16;;;;;;;23.77;6.07;;;33.00;57.60;;;;;;5115191;28;20076;-53
2021/09/07 06:20:42;;;;;;;27.52;6.30;;;32.90;57.50;;;;;;5114506;28;20486;-50
2021/09/07 06:23:10;;;;;;;32.22;5.43;;;32.90;57.90;;;;;;5111690;28;20076;-49
2021/09/07 06:25:36;;;;;;;29.80;5.95;;;32.90;57.80;;;;;;5110161;28;20099;-51
2021/09/07 06:28:03;;;;;;;38.08;6.25;;;32.80;57.80;;;;;;5113857;28;20084;-53
2021/09/07 06:30:30;;;;;;;29.35;5.95;;;32.80;57.90;;;;;;5112873;28;20077;-50
2021/09/07 06:32:56;;;;;;;29.55;5.82;;;32.80;58.00;;;;;;5113996;28;20076;-50
2021/09/07 06:35:25;;;;;;;30.33;5.78;;;32.80;58.20;;;;;;5112699;28;20075;-52
2021/09/07 06:37:54;;;;;;;20.50;5.40;;;32.80;58.10;;;;;;5108807;28;20102;-48
2021/09/07 06:40:21;;;;;;;13.73;4.28;;;32.80;58.00;;;;;;5111364;28;20171;-48
2021/09/07 06:42:49;;;;;;;14.75;4.60;;;32.80;58.10;;;;;;5110396;28;20080;-50
2021/09/07 06:45:16;;;;;;;20.50;5.18;;;32.80;58.30;;;;;;5118878;28;20072;-49
2021/09/07 06:47:42;;;;;;;14.75;5.78;;;32.70;58.50;;;;;;5114673;28;20076;-51
2021/09/07 06:50:11;;;;;;;13.57;4.55;;;32.70;58.80;;;;;;5117154;28;20073;-54
2021/09/07 06:52:37;;;;;;;17.40;5.03;;;32.70;58.90;;;;;;5117552;28;20116;-54
2021/09/07 06:55:05;;;;;;;15.13;4.53;;;32.70;59.10;;;;;;5112837;28;20104;-49
2021/09/07 06:57:31;;;;;;;9.45;4.20;;;32.60;59.10;;;;;;5113545;28;20096;-49
2021/09/07 06:59:58;;;;;;;10.25;4.22;;;32.60;59.00;;;;;;5096346;28;20529;-51
2021/09/07 07:02:24;;;;;;;16.58;3.78;;;32.60;59.20;;;;;;5095537;27;20154;-49
2021/09/07 07:04:50;;;;;;;6.57;2.90;;;32.60;59.40;;;;;;5117914;27;20072;-50
2021/09/07 07:07:18;;;;;;;12.13;2.78;;;32.50;59.30;;;;;;5118366;27;20072;-48
2021/09/07 07:09:45;;;;;;;14.02;3.63;;;32.50;59.50;;;;;;5114767;27;20156;-48
2021/09/07 07:12:11;;;;;;;13.45;3.03;;;32.50;59.50;;;;;;5116472;27;20612;-49
2021/09/07 07:14:38;;;;;;;12.85;3.03;;;32.40;59.60;;;;;;5114234;27;20533;-48
2021/09/07 07:17:05;;;;;;;7.78;3.15;;;32.40;59.40;;;;;;5116360;27;20100;-49
2021/09/07 07:19:31;;;;;;;10.88;4.43;;;32.40;59.50;;;;;;5118434;27;20110;-49
2021/09/07 07:21:58;;;;;;;13.50;5.97;;;32.40;59.80;;;;;;5116930;27;20202;-51
2021/09/07 07:24:24;;;;;;;16.80;6.70;;;32.40;60.30;;;;;;5115295;27;20076;-48
2021/09/07 07:26:51;;;;;;;21.60;8.25;;;32.30;60.20;;;;;;5114770;27;20529;-50
2021/09/07 07:29:17;;;;;;;19.77;7.78;;;32.40;61.20;;;;;;5119081;27;20167;-50
2021/09/07 07:31:44;;;;;;;19.65;7.20;;;32.30;61.90;;;;;;5100886;27;20427;-49
2021/09/07 07:34:10;;;;;;;12.32;6.22;;;32.30;62.10;;;;;;5114197;27;20495;-49
2021/09/07 07:36:37;;;;;;;12.73;5.68;;;32.30;63.40;;;;;;5115377;27;20092;-51
2021/09/07 07:39:04;;;;;;;17.58;6.30;;;32.20;64.00;;;;;;5115292;27;20097;-50
2021/09/07 07:41:31;;;;;;;11.35;4.63;;;32.20;64.80;;;;;;5100288;27;20526;-51
2021/09/07 07:43:57;;;;;;;8.65;4.70;;;32.10;65.90;;;;;;5116814;27;20072;-51
2021/09/07 07:46:24;;;;;;;10.63;3.85;;;32.00;66.60;;;;;;5114045;27;20083;-51
2021/09/07 07:48:50;;;;;;;9.73;4.05;;;32.00;67.20;;;;;;5118507;27;20080;-48
2021/09/07 07:51:18;;;;;;;10.48;3.83;;;32.00;68.20;;;;;;5115363;27;20080;-50
2021/09/07 07:53:44;;;;;;;11.23;4.15;;;31.80;68.80;;;;;;5117545;27;20525;-50
2021/09/07 07:56:11;;;;;;;9.25;2.83;;;31.70;69.30;;;;;;5118906;27;20094;-51
2021/09/07 07:58:37;;;;;;;7.47;2.50;;;31.60;69.90;;;;;;5118601;27;20077;-49
2021/09/07 08:01:04;;;;;;;5.60;2.33;;;31.60;70.20;;;;;;5115297;27;20096;-49
2021/09/07 08:03:31;;;;;;;9.55;2.83;;;31.60;70.30;;;;;;5117049;27;20076;-46
2021/09/07 08:05:59;;;;;;;7.88;2.42;;;31.60;70.10;;;;;;5117229;27;20112;-51
2021/09/07 08:08:25;;;;;;;7.60;2.88;;;31.50;69.90;;;;;;5114877;27;20078;-46
2021/09/07 08:10:52;;;;;;;5.90;2.67;;;31.40;71.20;;;;;;5115600;27;20159;-48
2021/09/07 08:13:18;;;;;;;6.85;2.70;;;31.30;72.00;;;;;;5118043;27;20084;-48
2021/09/07 08:15:45;;;;;;;8.32;3.22;;;31.30;72.70;;;;;;5114464;27;20072;-50
2021/09/07 08:18:11;;;;;;;9.48;2.75;;;31.20;72.90;;;;;;5114530;27;20100;-48
2021/09/07 08:20:38;;;;;;;5.75;2.65;;;31.20;73.60;;;;;;5115258;27;20530;-49
2021/09/07 08:23:04;;;;;;;5.75;2.70;;;31.10;74.20;;;;;;5114895;27;20080;-49
2021/09/07 08:25:31;;;;;;;4.70;2.50;;;31.00;74.80;;;;;;5114693;27;20058;-49
2021/09/07 08:27:57;;;;;;;5.70;2.63;;;31.00;75.30;;;;;;5116017;27;20096;-51
2021/09/07 08:30:24;;;;;;;10.52;3.17;;;31.10;75.70;;;;;;5118108;27;20087;-48
2021/09/07 08:32:50;;;;;;;9.52;3.25;;;30.80;76.20;;;;;;5116708;27;20428;-46
2021/09/07 08:35:17;;;;;;;7.30;2.95;;;30.80;76.60;;;;;;5114421;27;20150;-50
2021/09/07 08:37:43;;;;;;;12.73;2.80;;;30.70;76.70;;;;;;5117834;27;20182;-48
2021/09/07 08:40:11;;;;;;;7.07;2.75;;;30.70;77.10;;;;;;5114494;27;20076;-47
2021/09/07 08:42:38;;;;;;;8.52;2.80;;;30.80;76.70;;;;;;5111606;27;20075;-51
2021/09/07 08:45:08;;;;;;;6.57;2.78;;;30.80;77.70;;;;;;5113468;27;20533;-48
2021/09/07 08:47:37;;;;;;;6.60;2.88;;;30.70;77.50;;;;;;5112188;27;20072;-46
2021/09/07 08:50:04;;;;;;;7.43;2.67;;;30.60;77.50;;;;;;5113842;27;20068;-48
2021/09/07 08:52:31;;;;;;;11.48;3.00;;;30.70;77.70;;;;;;5119442;27;20072;-48
2021/09/07 08:54:58;;;;;;;6.10;2.75;;;30.60;77.90;;;;;;5116982;27;20067;-48
2021/09/07 08:57:25;;;;;;;8.43;2.72;;;30.70;77.80;;;;;;5120030;27;20100;-47
2021/09/07 08:59:59;;;;;;;4.63;2.50;;;30.70;77.80;;;;;;5112773;27;20079;-51
2021/09/07 09:02:27;;;;;;;6.40;2.40;;;30.60;77.70;;;;;;5113250;27;20174;-47
2021/09/07 09:04:55;;;;;;;12.10;2.55;;;30.60;77.70;;;;;;5114105;27;20100;-49
2021/09/07 09:07:26;;;;;;;11.05;2.50;;;30.60;77.90;;;;;;5096896;28;20075;-46
2021/09/07 09:09:54;;;;;;;5.95;1.90;;;30.50;78.90;;;;;;5119012;27;20078;-49
2021/09/07 09:12:35;;;;;;;6.32;2.60;;;30.40;78.70;;;;;;5116150;27;20583;-50
2021/09/07 09:15:10;;;;;;;7.07;2.13;;;30.40;79.30;;;;;;5114804;27;20072;-49
2021/09/07 09:17:36;;;;;;;10.93;2.63;;;30.30;79.20;;;;;;5114558;27;20230;-49
2021/09/07 09:20:07;;;;;;;8.15;3.15;;;30.40;80.10;;;;;;5118603;27;20537;-48
2021/09/07 09:22:53;;;;;;;7.50;2.63;;;30.40;79.10;;;;;;5111466;27;20602;-50
2021/09/07 09:25:20;;;;;;;9.95;3.13;;;30.40;79.30;;;;;;5098248;27;20071;-51
2021/09/07 09:27:47;;;;;;;8.60;2.75;;;30.30;79.60;;;;;;5115693;27;20084;-46
2021/09/07 09:30:16;;;;;;;11.90;2.63;;;30.30;79.90;;;;;;5115734;27;20556;-48
2021/09/07 09:32:50;;;;;;;8.63;2.72;;;30.20;80.30;;;;;;5115817;27;20079;-47
2021/09/07 09:35:17;;;;;;;8.68;2.40;;;30.30;80.70;;;;;;5115928;27;20162;-48
2021/09/07 09:38:04;;;;;;;8.02;2.53;;;30.40;80.70;;;;;;5112452;27;20091;-49
2021/09/07 09:40:33;;;;;;;9.70;2.85;;;30.30;81.30;;;;;;5114536;27;20078;-48
2021/09/07 09:43:18;;;;;;;8.07;2.60;;;30.30;81.80;;;;;;5116665;27;20118;-49
2021/09/07 09:45:44;;;;;;;8.18;2.80;;;30.30;82.50;;;;;;5113300;27;20202;-50
2021/09/07 09:48:31;;;;;;;10.00;3.00;;;30.20;83.50;;;;;;5112625;27;20072;-48
2021/09/07 09:50:59;;;;;;;6.13;2.60;;;30.10;84.70;;;;;;5112744;27;20095;-50
2021/09/07 09:53:28;;;;;;;8.57;2.72;;;30.10;85.80;;;;;;5114781;27;20072;-48
2021/09/07 09:55:55;;;;;;;8.88;3.25;;;30.10;86.10;;;;;;5116713;27;20086;-51
2021/09/07 09:58:23;;;;;;;8.57;2.88;;;30.10;86.50;;;;;;5114013;27;20080;-50
2021/09/07 10:00:51;;;;;;;12.10;3.17;;;30.10;86.90;;;;;;5116294;27;20155;-46
2021/09/07 10:03:18;;;;;;;8.48;3.20;;;30.20;87.30;;;;;;5114995;27;20067;-47
2021/09/07 10:05:46;;;;;;;10.50;2.88;;;30.20;87.90;;;;;;5115023;27;20458;-49
2021/09/07 10:08:15;;;;;;;9.77;2.55;;;30.10;89.00;;;;;;5112605;27;20099;-50
2021/09/07 10:11:01;;;;;;;11.75;2.95;;;30.20;90.00;;;;;;5110570;28;20077;-49
2021/09/07 10:13:30;;;;;;;8.05;2.83;;;30.10;90.80;;;;;;5108753;28;20103;-47
2021/09/07 10:16:18;;;;;;;13.88;2.95;;;30.10;91.50;;;;;;5111689;28;20517;-48
2021/09/07 10:18:58;;;;;;;11.70;3.67;;;30.10;91.90;;;;;;5114970;28;20452;-49
2021/09/07 10:24:17;;;;;;;15.23;3.88;;;30.10;93.50;;;;;;5112166;28;20083;-48
2021/09/07 10:26:43;;;;;;;10.57;3.65;;;30.20;93.90;;;;;;5111554;28;20077;-52
2021/09/07 10:29:15;;;;;;;10.13;3.67;;;30.10;95.10;;;;;;5110864;28;20540;-48
2021/09/07 10:31:44;;;;;;;12.35;3.67;;;30.10;96.00;;;;;;5116955;28;20620;-49
2021/09/07 10:34:11;;;;;;;11.15;3.35;;;30.10;96.70;;;;;;5111597;28;20108;-49
2021/09/07 10:37:07;;;;;;;10.95;3.13;;;30.10;97.50;;;;;;5114961;27;20182;-47
2021/09/07 10:39:42;;;;;;;7.85;2.78;;;30.00;98.70;;;;;;5118610;27;20068;-47
2021/09/07 10:42:12;;;;;;;8.52;2.95;;;29.90;99.10;;;;;;5118435;27;20439;-51
2021/09/07 10:44:42;;;;;;;8.65;3.22;;;29.80;99.90;;;;;;5116867;27;20509;-48
2021/09/07 10:47:13;;;;;;;9.68;3.33;;;29.70;99.90;;;;;;5119555;27;20155;-52
2021/09/07 10:49:47;;;;;;;9.13;3.13;;;29.70;99.90;;;;;;5120313;27;20076;-50
2021/09/07 10:52:14;;;;;;;6.57;2.70;;;29.70;99.90;;;;;;5116188;27;20081;-49
2021/09/07 10:54:53;;;;;;;10.20;3.40;;;29.70;99.90;;;;;;5117220;27;20083;-51
2021/09/07 10:57:45;;;;;;;6.13;2.60;;;29.70;99.90;;;;;;5115981;27;20428;-49
2021/09/07 11:00:11;;;;;;;12.30;2.90;;;29.60;99.90;;;;;;5117944;27;20410;-50
2021/09/07 11:02:42;;;;;;;7.10;2.75;;;29.60;99.90;;;;;;5118253;27;20075;-51
2021/09/07 11:05:29;;;;;;;6.00;2.83;;;29.70;99.90;;;;;;5115262;27;20483;-52
2021/09/07 11:08:18;;;;;;;17.98;3.92;;;29.70;99.90;;;;;;5096099;27;20104;-49
2021/09/07 11:10:50;;;;;;;14.95;3.00;;;29.60;99.90;;;;;;5118839;27;20125;-47
2021/09/07 11:13:22;;;;;;;9.25;2.97;;;29.60;99.90;;;;;;5114526;27;20096;-49
2021/09/07 11:15:50;;;;;;;9.07;3.03;;;29.60;99.90;;;;;;5113299;27;20088;-49
2021/09/07 11:18:22;;;;;;;9.48;3.38;;;29.60;99.90;;;;;;5115990;27;20095;-48
2021/09/07 11:20:50;;;;;;;16.27;4.13;;;29.50;99.90;;;;;;5115755;27;20159;-48
2021/09/07 11:23:25;;;;;;;11.95;3.92;;;29.50;99.90;;;;;;5114624;27;20087;-50
2021/09/07 11:26:00;;;;;;;14.93;3.88;;;29.50;99.90;;;;;;5116034;27;20063;-48
2021/09/07 11:28:27;;;;;;;9.48;3.72;;;29.50;99.90;;;;;;5116287;27;20433;-52
2021/09/07 11:30:54;;;;;;;14.98;4.10;;;29.50;99.90;;;;;;5117803;27;20079;-50
2021/09/07 11:33:23;;;;;;;12.23;4.35;;;29.50;99.90;;;;;;5116076;27;20133;-47
2021/09/07 11:36:02;;;;;;;15.75;4.85;;;29.50;99.90;;;;;;5117862;27;20579;-47
2021/09/07 11:38:35;;;;;;;15.15;4.65;;;29.50;99.90;;;;;;5116968;27;20083;-47
2021/09/07 11:41:04;;;;;;;15.80;4.97;;;29.50;99.90;;;;;;5117731;27;20084;-47
2021/09/07 11:43:33;;;;;;;16.85;4.57;;;29.50;99.90;;;;;;5116556;27;20080;-47
2021/09/07 11:46:12;;;;;;;19.45;4.70;;;29.50;99.90;;;;;;5113196;27;20068;-47
2021/09/07 11:48:41;;;;;;;16.00;4.38;;;29.50;99.90;;;;;;5116269;27;20086;-49
2021/09/07 11:51:09;;;;;;;18.05;4.45;;;29.50;99.90;;;;;;5114661;27;20093;-47
2021/09/07 11:53:35;;;;;;;13.35;4.03;;;29.40;99.90;;;;;;5116789;27;20067;-47
2021/09/07 11:56:03;;;;;;;13.05;4.10;;;29.30;99.90;;;;;;5113654;27;20072;-48
2021/09/07 11:58:40;;;;;;;18.58;4.20;;;29.30;99.90;;;;;;5117171;27;20456;-49
2021/09/07 12:01:15;;;;;;;15.68;3.95;;;29.40;99.90;;;;;;5116707;27;20121;-48
2021/09/07 12:04:05;;;;;;;15.95;4.25;;;29.40;99.90;;;;;;5118990;27;20103;-49
2021/09/07 12:06:37;;;;;;;13.27;4.03;;;29.50;99.90;;;;;;5107518;27;20094;-52
2021/09/07 12:09:32;;;;;;;13.35;4.57;;;29.50;99.90;;;;;;5111836;27;20075;-52
2021/09/07 12:12:01;;;;;;;15.55;4.75;;;29.50;99.90;;;;;;5112561;27;20060;-49
2021/09/07 12:14:35;;;;;;;12.80;3.72;;;29.40;99.90;;;;;;5116846;27;20206;-47
2021/09/07 12:17:10;;;;;;;12.45;4.00;;;29.50;99.90;;;;;;5118491;27;20095;-49
2021/09/07 12:19:47;;;;;;;12.77;3.70;;;29.40;99.90;;;;;;5121775;27;20557;-48
2021/09/07 12:22:26;;;;;;;13.77;4.32;;;29.40;99.90;;;;;;5113131;27;20079;-47
2021/09/07 12:25:14;;;;;;;10.75;3.50;;;29.30;99.90;;;;;;5116282;27;20079;-51
2021/09/07 12:27:44;;;;;;;11.05;3.55;;;29.40;99.90;;;;;;5113942;27;20076;-49
2021/09/07 12:30:19;;;;;;;10.75;3.65;;;29.40;99.90;;;;;;5118113;27;20097;-50
2021/09/07 12:32:58;;;;;;;15.02;4.28;;;29.50;99.90;;;;;;5118612;27;20451;-49
2021/09/07 12:35:38;;;;;;;11.85;4.00;;;29.40;99.90;;;;;;5118040;27;20413;-51
2021/09/07 12:38:35;;;;;;;12.43;3.80;;;29.40;99.90;;;;;;5112701;27;20568;-48
2021/09/07 12:41:16;;;;;;;14.45;4.15;;;29.40;99.90;;;;;;5111747;27;20171;-49
2021/09/07 12:43:46;;;;;;;18.38;4.32;;;29.40;99.90;;;;;;5119116;27;20541;-52
2021/09/07 12:46:19;;;;;;;13.30;4.18;;;29.30;99.90;;;;;;5116617;27;20118;-50
2021/09/07 12:48:48;;;;;;;17.10;5.80;;;29.40;99.90;;;;;;5113362;27;20083;-48
2021/09/07 12:51:16;;;;;;;17.38;4.50;;;29.40;99.90;;;;;;5111929;27;20081;-53